Terminal Aerodrome Forecast
Issued by NWS

Home | Current Version | Previous Version | Text Only | Print | Product List | Glossary On
Versions: 1 2 3 4 5 6 7 8 9 10 11 12
000
FTUS46 KSEW 312300
TAFBLI
TAF
KBLI 312320Z 0100/0124 VRB04KT P6SM FEW250
     FM010400 18005KT P6SM SCT250
     FM011500 18006KT P6SM SCT120
     FM012000 24005KT P6SM SCT120=

USA.gov is the U.S. government's official web portal to all federal, state and local government web resources and services.